createdAt,value
2023-01-02T00:04:38.422Z,73.85
2023-01-02T00:10:09.951Z,73.65
2023-01-02T00:15:41.274Z,73.95
2023-01-02T00:21:12.373Z,73.75
2023-01-02T00:26:43.718Z,73.89
2023-01-02T00:32:15.907Z,73.19
2023-01-02T00:37:47.225Z,73.76
2023-01-02T00:43:18.847Z,74.27
2023-01-02T00:48:50.988Z,73.82
2023-01-02T00:54:22.791Z,73.80
2023-01-02T00:59:54.122Z,74.14
2023-01-02T01:05:26.893Z,74.27
2023-01-02T01:10:58.137Z,73.58
2023-01-02T01:16:29.220Z,73.76
2023-01-02T01:22:00.915Z,73.97
2023-01-02T01:27:32.154Z,73.68
2023-01-02T01:33:03.328Z,73.92
2023-01-02T01:38:34.769Z,74.19
2023-01-02T01:44:45.910Z,74.07
2023-01-02T01:50:22.896Z,73.97
2023-01-02T01:55:56.567Z,74.06
2023-01-02T02:01:27.678Z,73.72
2023-01-02T02:06:59.125Z,74.10
2023-01-02T02:12:30.729Z,74.18
2023-01-02T02:18:21.001Z,73.53
2023-01-02T02:24:10.230Z,73.88
2023-01-02T02:29:56.046Z,73.93
2023-01-02T02:35:58.041Z,74.39
2023-01-02T02:41:36.410Z,74.00
2023-01-02T02:47:16.463Z,74.05
2023-01-02T02:52:59.262Z,73.83
2023-01-02T02:58:31.218Z,73.95
2023-01-02T03:04:02.305Z,74.20
2023-01-02T03:09:49.001Z,74.04
2023-01-02T03:15:26.535Z,73.97
2023-01-02T03:21:32.360Z,73.79
2023-01-02T03:27:07.333Z,73.47
2023-01-02T03:32:44.460Z,73.66
2023-01-02T03:38:48.909Z,73.48
2023-01-02T03:44:23.482Z,73.83
2023-01-02T03:49:54.754Z,73.83
2023-01-02T03:55:26.270Z,73.84
2023-01-02T04:00:58.784Z,73.56
2023-01-02T04:06:34.376Z,73.95
2023-01-02T04:12:07.575Z,73.52
2023-01-02T04:17:43.133Z,73.96
2023-01-02T04:23:14.949Z,74.19
2023-01-02T04:28:46.262Z,74.03
2023-01-02T04:34:17.692Z,74.27
2023-01-02T04:39:48.814Z,73.99
2023-01-02T04:45:20.090Z,74.06
2023-01-02T04:50:50.998Z,73.92
2023-01-02T04:56:22.023Z,74.23
2023-01-02T05:01:53.925Z,74.36
2023-01-02T05:07:25.349Z,73.97
2023-01-02T05:12:58.391Z,74.22
2023-01-02T05:18:29.787Z,73.82
2023-01-02T05:24:01.694Z,74.09
2023-01-02T05:29:32.762Z,74.17
2023-01-02T05:35:03.878Z,73.84
2023-01-02T05:40:34.793Z,73.89
2023-01-02T05:46:09.961Z,73.87
2023-01-02T05:51:41.055Z,74.01
2023-01-02T05:57:12.212Z,73.69
2023-01-02T06:02:47.998Z,74.32
2023-01-02T06:08:19.902Z,74.02
2023-01-02T06:13:50.973Z,73.85
2023-01-02T06:19:21.878Z,73.89
2023-01-02T06:24:53.021Z,73.94
2023-01-02T06:30:23.986Z,73.98
2023-01-02T06:36:01.230Z,73.81
2023-01-02T06:41:32.641Z,73.93
2023-01-02T06:47:03.627Z,73.44
2023-01-02T06:52:34.509Z,73.64
2023-01-02T06:58:11.155Z,73.60
2023-01-02T07:03:43.538Z,73.79
2023-01-02T07:09:14.508Z,74.05
2023-01-02T07:14:45.485Z,73.68
2023-01-02T07:20:16.397Z,73.61
2023-01-02T07:25:54.924Z,73.49
2023-01-02T07:31:26.723Z,73.86
2023-01-02T07:36:57.886Z,73.64
2023-01-02T07:42:28.897Z,73.75
2023-01-02T07:48:00.169Z,73.92
2023-01-02T07:53:31.374Z,73.68
2023-01-02T07:59:02.231Z,73.50
2023-01-02T08:04:33.230Z,73.65
2023-01-02T08:10:04.970Z,73.54
2023-01-02T08:15:36.318Z,73.78
2023-01-02T08:21:07.337Z,73.64
2023-01-02T08:26:38.587Z,73.78
2023-01-02T08:32:09.358Z,73.41
2023-01-02T08:37:41.784Z,73.81
2023-01-02T08:43:16.360Z,73.62
2023-01-02T08:48:47.498Z,73.80
2023-01-02T08:54:18.271Z,73.56
2023-01-02T08:59:49.951Z,73.99
2023-01-02T09:05:20.986Z,73.75
2023-01-02T09:10:52.071Z,73.95
2023-01-02T09:16:23.419Z,73.87
2023-01-02T09:21:54.563Z,74.06
2023-01-02T09:27:25.491Z,73.61
2023-01-02T09:32:56.498Z,73.82
2023-01-02T09:38:27.512Z,73.79
2023-01-02T09:44:00.245Z,73.36
2023-01-02T09:49:32.563Z,73.49
2023-01-02T09:55:04.288Z,73.38
2023-01-02T10:00:39.015Z,73.00
2023-01-02T10:06:20.698Z,73.17
2023-01-02T10:11:51.503Z,72.83
2023-01-02T10:17:22.500Z,73.46
2023-01-02T10:22:53.905Z,73.31
2023-01-02T10:28:30.782Z,73.02
2023-01-02T10:34:02.670Z,73.26
2023-01-02T10:39:33.854Z,73.43
2023-01-02T10:45:05.057Z,73.18
2023-01-02T10:50:47.162Z,73.26
2023-01-02T10:56:19.917Z,73.15
2023-01-02T11:01:55.518Z,73.51
2023-01-02T11:07:26.541Z,73.57
2023-01-02T11:13:01.462Z,73.41
2023-01-02T11:18:33.682Z,73.67
2023-01-02T11:24:05.391Z,73.60
2023-01-02T11:29:36.337Z,73.69
2023-01-02T11:35:27.249Z,73.17
2023-01-02T11:41:00.631Z,73.42
2023-01-02T11:46:35.009Z,73.89
2023-01-02T11:52:05.993Z,73.20
2023-01-02T11:57:46.583Z,73.67
2023-01-02T12:03:27.514Z,73.85
2023-01-02T12:09:04.970Z,73.30
2023-01-02T12:14:55.089Z,73.18
2023-01-02T12:20:29.300Z,73.30
2023-01-02T12:26:04.236Z,73.80
2023-01-02T12:32:01.221Z,73.70
2023-01-02T12:37:35.850Z,74.03
2023-01-02T12:43:25.003Z,73.39
2023-01-02T12:49:00.926Z,73.82
2023-01-02T12:54:35.309Z,73.34
2023-01-02T13:00:41.712Z,74.10
2023-01-02T13:06:45.322Z,73.78
2023-01-02T13:12:15.812Z,73.74
2023-01-02T13:17:49.921Z,73.48
2023-01-02T13:23:27.979Z,73.64
2023-01-02T13:28:59.093Z,73.74
2023-01-02T13:34:30.473Z,73.74
2023-01-02T13:40:01.969Z,73.84
2023-01-02T13:45:40.090Z,74.20
2023-01-02T13:51:15.260Z,73.98
2023-01-02T13:57:04.866Z,73.95
2023-01-02T14:02:36.221Z,73.72
2023-01-02T14:08:21.843Z,73.58
2023-01-02T14:13:53.539Z,73.43
2023-01-02T14:19:25.166Z,73.46
2023-01-02T14:24:57.208Z,73.87
2023-01-02T14:30:32.416Z,74.19
2023-01-02T14:36:07.375Z,73.49
2023-01-02T14:42:09.374Z,74.07
2023-01-02T14:47:42.908Z,73.76
2023-01-02T14:53:24.796Z,73.88
2023-01-02T14:58:55.964Z,74.05
2023-01-02T15:04:39.214Z,74.20
2023-01-02T15:10:13.577Z,73.40
2023-01-02T15:15:44.425Z,73.51
2023-01-02T15:21:16.156Z,73.49
2023-01-02T15:26:47.373Z,74.01
2023-01-02T15:32:20.273Z,73.78
2023-01-02T15:37:51.210Z,73.87
2023-01-02T15:43:40.992Z,73.88
2023-01-02T15:49:13.765Z,73.55
2023-01-02T15:54:44.673Z,73.64
2023-01-02T16:00:34.837Z,73.88
2023-01-02T16:06:07.650Z,73.35
2023-01-02T16:11:49.099Z,74.11
2023-01-02T16:17:23.316Z,73.75
2023-01-02T16:22:54.560Z,73.47
2023-01-02T16:28:35.664Z,73.72
2023-01-02T16:34:14.405Z,74.05
2023-01-02T16:39:47.293Z,74.20
2023-01-02T16:45:19.884Z,74.01
2023-01-02T16:50:52.174Z,73.80
2023-01-02T16:56:23.883Z,74.11
2023-01-02T17:01:55.288Z,74.21
2023-01-02T17:07:26.589Z,74.14
2023-01-02T17:12:57.496Z,74.17
2023-01-02T17:18:28.739Z,73.97
2023-01-02T17:23:59.950Z,73.84
2023-01-02T17:29:31.116Z,74.25
2023-01-02T17:35:03.371Z,74.16
2023-01-02T17:40:34.583Z,74.30
2023-01-02T17:46:22.589Z,74.30
2023-01-02T17:51:58.175Z,73.86
2023-01-02T17:57:29.458Z,74.09
2023-01-02T18:03:00.408Z,74.20
2023-01-02T18:08:31.671Z,74.29
2023-01-02T18:14:03.041Z,74.32
2023-01-02T18:19:34.697Z,74.36
2023-01-02T18:25:16.355Z,73.74
2023-01-02T18:30:49.984Z,74.71
2023-01-02T18:36:22.823Z,74.66
2023-01-02T18:41:55.043Z,73.85
2023-01-02T18:47:28.365Z,73.99
2023-01-02T18:52:59.614Z,74.59
2023-01-02T18:58:33.672Z,74.64
2023-01-02T19:04:14.868Z,74.22
2023-01-02T19:09:50.513Z,74.78
2023-01-02T19:15:32.197Z,74.52
2023-01-02T19:21:09.187Z,74.63
2023-01-02T19:26:41.693Z,74.63
2023-01-02T19:32:31.977Z,74.56
2023-01-02T19:38:19.171Z,74.64
2023-01-02T19:43:50.295Z,74.15
2023-01-02T19:49:21.232Z,74.42
2023-01-02T19:54:55.326Z,74.18
2023-01-02T20:00:26.664Z,74.49
2023-01-02T20:05:58.212Z,74.58
2023-01-02T20:11:47.544Z,74.55
2023-01-02T20:17:18.809Z,74.74
2023-01-02T20:22:52.022Z,74.65
2023-01-02T20:28:23.883Z,74.72
2023-01-02T20:33:54.775Z,74.40
2023-01-02T20:39:25.939Z,74.26
2023-01-02T20:44:56.734Z,74.27
2023-01-02T20:50:27.605Z,74.35
2023-01-02T20:55:58.824Z,74.37
2023-01-02T21:01:30.085Z,74.51
2023-01-02T21:07:01.361Z,74.27
2023-01-02T21:12:50.697Z,74.08
2023-01-02T21:18:29.197Z,74.12
2023-01-02T21:24:00.121Z,74.32
2023-01-02T21:29:30.934Z,74.42
2023-01-02T21:35:01.963Z,74.30
2023-01-02T21:40:32.901Z,74.07
2023-01-02T21:46:04.379Z,74.34
2023-01-02T21:51:36.328Z,74.22
2023-01-02T21:57:07.337Z,74.29
2023-01-02T22:02:38.999Z,74.28
2023-01-02T22:08:10.486Z,74.50
2023-01-02T22:13:42.516Z,74.22
2023-01-02T22:19:13.770Z,74.18
2023-01-02T22:24:45.193Z,73.89
2023-01-02T22:30:24.345Z,73.90
2023-01-02T22:35:58.773Z,74.05
2023-01-02T22:41:33.534Z,73.99
2023-01-02T22:47:04.726Z,74.32
2023-01-02T22:52:36.215Z,74.15
2023-01-02T22:58:08.130Z,74.25
2023-01-02T23:03:41.004Z,74.20
2023-01-02T23:09:12.019Z,74.21
2023-01-02T23:14:43.306Z,74.21
2023-01-02T23:20:14.634Z,73.99
2023-01-02T23:25:45.615Z,74.21
2023-01-02T23:31:16.701Z,74.10
2023-01-02T23:36:48.179Z,74.50
2023-01-02T23:42:19.148Z,74.19
2023-01-02T23:47:50.411Z,73.88
2023-01-02T23:53:21.460Z,73.91
2023-01-02T23:58:53.005Z,74.36
